Time;durP1;ratioP1;P1;durP2;ratioP2;P2;SDS_P1;SDS_P2;PMS_P1;PMS_P2;Temp;Humidity;BMP_temperature;BMP_pressure;BME280_temperature;BME280_humidity;BME280_pressure;Samples;Min_cycle;Max_cycle;Signal;HPM_P1;HPM_P2
2021/12/05 00:22:31;;;;;;;4.38;2.38;;;;;;;;;;5054272;28;20072;-37
2021/12/05 00:24:58;;;;;;;2.72;1.42;;;;;;;;;;5054489;28;20029;-37
2021/12/05 00:27:30;;;;;;;6.53;3.28;;;;;;;;;;5054343;28;20112;-37
2021/12/05 00:30:23;;;;;;;5.07;3.10;;;;;;;;;;5053945;28;20475;-37
2021/12/05 00:32:59;;;;;;;;;;;;;;;;;;5053060;28;20475;-38
2021/12/05 01:09:33;;;;;;;8.07;4.05;;;;;;;;;;5053387;28;20033;-37
2021/12/05 01:12:12;;;;;;;;;;;;;;;;;;5053643;28;20032;-38
2021/12/05 01:15:02;;;;;;;4.25;2.80;;;;;;;;;;5052039;28;19908;-37
2021/12/05 01:17:47;;;;;;;2.05;1.63;;;;;;;;;;5051934;28;20551;-37
2021/12/05 01:20:15;;;;;;;3.33;2.17;;;;;;;;;;5051758;28;20435;-37
2021/12/05 01:22:54;;;;;;;9.35;2.25;;;;;;;;;;5050930;28;20094;-37
2021/12/05 01:25:34;;;;;;;6.93;3.10;;;;;;;;;;5051705;28;20438;-37
2021/12/05 01:28:07;;;;;;;7.70;3.20;;;;;;;;;;5053176;28;20052;-37
2021/12/05 01:33:11;;;;;;;6.15;2.33;;;;;;;;;;5051477;28;20725;-37
2021/12/05 01:49:04;;;;;;;4.57;2.22;;;;;;;;;;5051374;28;20031;-37
2021/12/05 01:57:37;;;;;;;5.18;2.45;;;;;;;;;;5051183;28;20041;-37
2021/12/05 01:59:51;;;;;;;3.55;2.58;;;;;;;;;;5048140;28;20033;-37
2021/12/05 02:42:39;;;;;;;7.35;3.25;;;;;;;;;;5050324;28;20025;-37
2021/12/05 02:45:06;;;;;;;4.90;3.10;;;;;;;;;;5051756;28;20155;-37
2021/12/05 02:47:32;;;;;;;6.25;3.65;;;;;;;;;;5050277;28;20046;-37
2021/12/05 02:50:00;;;;;;;3.95;2.30;;;;;;;;;;5050149;28;20021;-38
2021/12/05 02:52:29;;;;;;;3.22;2.25;;;;;;;;;;5050202;28;20033;-37
2021/12/05 02:54:57;;;;;;;2.05;1.73;;;;;;;;;;5050399;28;20028;-37
2021/12/05 02:58:14;;;;;;;4.40;2.63;;;;;;;;;;5050130;28;20040;-37
2021/12/05 03:00:34;;;;;;;5.43;2.92;;;;;;;;;;5047307;28;20052;-37
2021/12/05 03:03:01;;;;;;;3.03;2.72;;;;;;;;;;5051522;28;20415;-37
2021/12/05 03:05:26;;;;;;;3.25;1.52;;;;;;;;;;5051354;28;20032;-37
2021/12/05 03:07:58;;;;;;;2.92;2.50;;;;;;;;;;5051313;28;20041;-37
2021/12/05 03:10:25;;;;;;;2.72;1.88;;;;;;;;;;5049931;28;20090;-37
2021/12/05 03:12:50;;;;;;;2.90;2.38;;;;;;;;;;5049835;28;20037;-39
2021/12/05 03:15:17;;;;;;;4.05;2.00;;;;;;;;;;5051297;28;20498;-37
2021/12/05 03:17:43;;;;;;;3.83;2.28;;;;;;;;;;5051154;28;20048;-37
2021/12/05 03:20:13;;;;;;;2.72;1.80;;;;;;;;;;5049795;28;20037;-37
2021/12/05 03:22:38;;;;;;;5.72;2.53;;;;;;;;;;5051393;28;20387;-37
2021/12/05 03:25:06;;;;;;;3.22;2.17;;;;;;;;;;5051264;28;20090;-37
2021/12/05 03:27:31;;;;;;;2.83;2.20;;;;;;;;;;5049853;28;20426;-37
2021/12/05 03:29:59;;;;;;;2.33;1.25;;;;;;;;;;5049726;28;20029;-37
2021/12/05 03:32:25;;;;;;;3.50;1.70;;;;;;;;;;5033178;28;20021;-37
2021/12/05 03:34:52;;;;;;;1.95;1.52;;;;;;;;;;5049806;28;20025;-37
2021/12/05 03:37:17;;;;;;;5.68;1.48;;;;;;;;;;5049599;28;20035;-37
2021/12/05 03:39:43;;;;;;;3.75;2.33;;;;;;;;;;5051082;28;20033;-37
2021/12/05 03:42:09;;;;;;;3.40;1.38;;;;;;;;;;5049498;28;20048;-38
2021/12/05 03:44:36;;;;;;;2.70;1.25;;;;;;;;;;5049780;28;20029;-37
2021/12/05 03:47:05;;;;;;;2.00;1.50;;;;;;;;;;5053493;28;20021;-37
2021/12/05 03:49:34;;;;;;;3.38;2.03;;;;;;;;;;5053609;28;20029;-37
2021/12/05 03:52:03;;;;;;;3.15;1.90;;;;;;;;;;5054936;28;20066;-37
2021/12/05 03:54:29;;;;;;;4.13;2.20;;;;;;;;;;5053540;28;20039;-37
2021/12/05 03:56:56;;;;;;;4.07;2.55;;;;;;;;;;5053397;28;20055;-37
2021/12/05 03:59:22;;;;;;;3.63;2.00;;;;;;;;;;5053442;28;20036;-37
2021/12/05 04:01:48;;;;;;;4.10;2.30;;;;;;;;;;5053176;28;20515;-37
2021/12/05 04:04:17;;;;;;;3.40;1.67;;;;;;;;;;5054650;28;20021;-37
2021/12/05 04:06:42;;;;;;;2.08;1.65;;;;;;;;;;5054575;28;20056;-37
2021/12/05 04:09:10;;;;;;;3.63;1.85;;;;;;;;;;5053408;28;20452;-37
2021/12/05 04:11:38;;;;;;;3.50;1.67;;;;;;;;;;5054436;28;20028;-38
2021/12/05 04:14:07;;;;;;;2.38;1.83;;;;;;;;;;5052987;28;20061;-37
2021/12/05 04:16:33;;;;;;;4.13;1.70;;;;;;;;;;5053077;28;20084;-37
2021/12/05 04:18:59;;;;;;;2.03;1.67;;;;;;;;;;5052989;28;20037;-37
2021/12/05 04:21:25;;;;;;;3.75;2.00;;;;;;;;;;5054140;28;20044;-38
2021/12/05 04:23:51;;;;;;;10.02;2.83;;;;;;;;;;5052876;28;20028;-37
2021/12/05 04:26:20;;;;;;;4.43;2.05;;;;;;;;;;5052938;28;20032;-37
2021/12/05 04:28:46;;;;;;;3.03;1.77;;;;;;;;;;5036165;28;20029;-37
2021/12/05 04:31:12;;;;;;;2.92;1.63;;;;;;;;;;5052816;28;20092;-37
2021/12/05 04:33:39;;;;;;;1.58;1.33;;;;;;;;;;5052798;28;20202;-37
2021/12/05 04:36:05;;;;;;;2.10;1.48;;;;;;;;;;5052585;28;20029;-37
2021/12/05 04:38:31;;;;;;;1.75;1.65;;;;;;;;;;5053813;28;20049;-37
2021/12/05 04:40:56;;;;;;;5.78;2.67;;;;;;;;;;5053768;28;20137;-38
2021/12/05 04:43:22;;;;;;;2.83;2.45;;;;;;;;;;5052515;28;20777;-37
2021/12/05 04:45:50;;;;;;;2.45;1.42;;;;;;;;;;5052501;28;20463;-37
2021/12/05 04:48:17;;;;;;;6.22;2.38;;;;;;;;;;5052499;28;20029;-37
2021/12/05 04:50:44;;;;;;;4.15;1.33;;;;;;;;;;5052380;28;20028;-37
2021/12/05 04:53:09;;;;;;;1.92;1.27;;;;;;;;;;5053600;28;20037;-37
2021/12/05 04:55:36;;;;;;;2.53;1.35;;;;;;;;;;5052303;28;20035;-37
2021/12/05 04:58:06;;;;;;;2.80;1.50;;;;;;;;;;5051167;28;20025;-37
2021/12/05 05:00:35;;;;;;;1.45;1.30;;;;;;;;;;5052198;28;20090;-37
2021/12/05 05:03:00;;;;;;;5.18;2.55;;;;;;;;;;5053323;28;20154;-37
2021/12/05 05:05:27;;;;;;;2.80;1.83;;;;;;;;;;5053785;28;20063;-37
2021/12/05 05:07:53;;;;;;;7.65;2.53;;;;;;;;;;5053607;28;20636;-37
2021/12/05 05:10:21;;;;;;;7.65;2.25;;;;;;;;;;5053260;28;20454;-37
2021/12/05 05:12:47;;;;;;;2.47;1.42;;;;;;;;;;5053185;28;20025;-37
2021/12/05 05:15:13;;;;;;;3.45;1.55;;;;;;;;;;5053310;28;20510;-37
2021/12/05 05:17:40;;;;;;;2.25;1.42;;;;;;;;;;5053115;28;20033;-37
2021/12/05 05:20:17;;;;;;;5.97;1.80;;;;;;;;;;5052993;28;20368;-37
2021/12/05 05:23:02;;;;;;;5.13;2.35;;;;;;;;;;5053104;28;20036;-37
2021/12/05 05:28:45;;;;;;;2.55;1.98;;;;;;;;;;5051927;28;20135;-38
2021/12/05 05:49:58;;;;;;;3.28;1.45;;;;;;;;;;5052798;28;20036;-37
2021/12/05 05:52:24;;;;;;;3.03;1.30;;;;;;;;;;5052498;28;20059;-37
2021/12/05 05:54:50;;;;;;;1.60;0.75;;;;;;;;;;5052609;28;20021;-37
2021/12/05 05:59:54;;;;;;;2.17;1.17;;;;;;;;;;5052392;28;20371;-41
2021/12/05 06:05:05;;;;;;;1.33;1.23;;;;;;;;;;5052548;28;20086;-37
2021/12/05 06:07:30;;;;;;;4.45;1.55;;;;;;;;;;5052272;28;20025;-37
2021/12/05 06:09:56;;;;;;;2.83;1.25;;;;;;;;;;5052176;28;20502;-37
2021/12/05 06:12:21;;;;;;;3.90;1.05;;;;;;;;;;5052155;28;20033;-38
2021/12/05 06:14:46;;;;;;;1.05;0.95;;;;;;;;;;5052137;28;20021;-37
2021/12/05 06:17:12;;;;;;;1.25;1.15;;;;;;;;;;5050725;28;20369;-37
2021/12/05 06:19:37;;;;;;;0.60;0.60;;;;;;;;;;5052135;28;20089;-37
2021/12/05 06:22:04;;;;;;;1.02;1.00;;;;;;;;;;5050500;28;20068;-37
2021/12/05 06:24:30;;;;;;;1.08;0.93;;;;;;;;;;5052290;28;20057;-37
2021/12/05 06:26:57;;;;;;;1.63;1.30;;;;;;;;;;5051802;28;20028;-37
2021/12/05 06:29:23;;;;;;;1.63;1.10;;;;;;;;;;5051804;28;20486;-37
2021/12/05 06:39:45;;;;;;;1.67;1.05;;;;;;;;;;5051579;28;20105;-36
2021/12/05 06:47:38;;;;;;;3.67;1.58;;;;;;;;;;5051636;28;20032;-37
2021/12/05 06:50:04;;;;;;;1.98;0.82;;;;;;;;;;5051372;28;20032;-37
2021/12/05 06:52:30;;;;;;;6.72;1.77;;;;;;;;;;5051778;28;20442;-38
2021/12/05 06:54:55;;;;;;;4.00;2.10;;;;;;;;;;5051424;28;20056;-36
2021/12/05 06:57:21;;;;;;;5.38;1.52;;;;;;;;;;5051368;28;20120;-38
2021/12/05 06:59:48;;;;;;;1.48;1.17;;;;;;;;;;5051474;28;20162;-37
2021/12/05 07:02:14;;;;;;;1.45;1.20;;;;;;;;;;5051301;28;20041;-37
2021/12/05 07:07:17;;;;;;;1.08;1.00;;;;;;;;;;5051514;28;20044;-37
2021/12/05 07:09:42;;;;;;;2.08;0.98;;;;;;;;;;5050040;28;20091;-37
2021/12/05 07:15:00;;;;;;;1.23;0.95;;;;;;;;;;5051226;28;20025;-37
2021/12/05 07:20:02;;;;;;;0.55;0.55;;;;;;;;;;5051632;28;20032;-37
2021/12/05 07:22:39;;;;;;;0.60;0.60;;;;;;;;;;5054502;28;20041;-36
2021/12/05 07:25:11;;;;;;;0.95;0.50;;;;;;;;;;5055572;28;20068;-37
2021/12/05 07:41:39;;;;;;;0.82;0.60;;;;;;;;;;5054513;28;20048;-37
2021/12/05 07:44:05;;;;;;;0.60;0.40;;;;;;;;;;5055216;28;20356;-37
2021/12/05 07:46:30;;;;;;;0.40;0.40;;;;;;;;;;5054938;28;20032;-37
2021/12/05 07:48:56;;;;;;;0.95;0.60;;;;;;;;;;5054831;28;20191;-37
2021/12/05 07:51:26;;;;;;;1.00;0.60;;;;;;;;;;5055073;28;20046;-37
2021/12/05 07:54:03;;;;;;;0.70;0.57;;;;;;;;;;5054968;28;20032;-37
2021/12/05 07:59:40;;;;;;;0.60;0.35;;;;;;;;;;5054745;28;20199;-37
2021/12/05 08:16:03;;;;;;;0.30;0.30;;;;;;;;;;5054258;28;20475;-37
2021/12/05 08:18:29;;;;;;;0.45;0.45;;;;;;;;;;5054741;28;20025;-37
2021/12/05 08:20:55;;;;;;;0.47;0.45;;;;;;;;;;5054374;28;20127;-37
2021/12/05 08:23:23;;;;;;;2.22;1.55;;;;;;;;;;5054465;28;20109;-37
2021/12/05 08:25:55;;;;;;;1.85;0.85;;;;;;;;;;5054140;28;20423;-37
2021/12/05 08:30:54;;;;;;;1.08;0.60;;;;;;;;;;5054041;28;20056;-37
2021/12/05 09:19:40;;;;;;;0.60;0.60;;;;;;;;;;5053415;28;20025;-37
2021/12/05 10:13:07;;;;;;;0.63;0.52;;;;;;;;;;5050849;28;20032;-37
2021/12/05 10:37:25;;;;;;;0.60;0.60;;;;;;;;;;5051815;28;20387;-38
2021/12/05 10:40:12;;;;;;;0.88;0.70;;;;;;;;;;5052084;28;20033;-37
2021/12/05 10:42:48;;;;;;;0.80;0.52;;;;;;;;;;5051596;28;20049;-37
2021/12/05 10:45:19;;;;;;;4.55;0.77;;;;;;;;;;5050210;28;20091;-38
2021/12/05 10:47:47;;;;;;;1.35;0.55;;;;;;;;;;5051667;28;20068;-37
2021/12/05 10:50:31;;;;;;;0.43;0.32;;;;;;;;;;5051463;28;20456;-37
2021/12/05 10:53:15;;;;;;;0.43;0.40;;;;;;;;;;5050160;28;20033;-37
2021/12/05 10:55:40;;;;;;;0.60;0.50;;;;;;;;;;5050684;28;20037;-37
2021/12/05 10:58:06;;;;;;;1.00;0.60;;;;;;;;;;5051442;28;20024;-37
2021/12/05 11:00:31;;;;;;;0.90;0.43;;;;;;;;;;5051573;28;20025;-37
2021/12/05 11:03:17;;;;;;;0.70;0.43;;;;;;;;;;5051303;28;20017;-37
2021/12/05 11:05:43;;;;;;;0.60;0.60;;;;;;;;;;5051585;28;20025;-37
2021/12/05 11:08:27;;;;;;;1.95;1.13;;;;;;;;;;5051217;28;20032;-37
2021/12/05 11:11:10;;;;;;;0.88;0.43;;;;;;;;;;5051138;28;20128;-37
2021/12/05 11:13:36;;;;;;;1.85;0.70;;;;;;;;;;5051309;28;20096;-37
2021/12/05 11:16:02;;;;;;;0.45;0.45;;;;;;;;;;5051147;28;20502;-37
2021/12/05 11:18:41;;;;;;;0.45;0.30;;;;;;;;;;5051287;28;20032;-37
2021/12/05 11:21:32;;;;;;;0.73;0.60;;;;;;;;;;5051198;28;20048;-37
2021/12/05 11:24:12;;;;;;;0.30;0.30;;;;;;;;;;5048550;28;20037;-37
2021/12/05 11:26:40;;;;;;;0.68;0.60;;;;;;;;;;5051450;28;20391;-37
2021/12/05 11:29:06;;;;;;;0.50;0.50;;;;;;;;;;5050940;28;20381;-37
2021/12/05 11:31:32;;;;;;;1.20;0.77;;;;;;;;;;5051494;28;20138;-37
2021/12/05 11:33:58;;;;;;;0.82;0.82;;;;;;;;;;5051084;28;20024;-37
2021/12/05 11:36:28;;;;;;;2.92;0.55;;;;;;;;;;5051328;28;20025;-37
2021/12/05 11:38:54;;;;;;;1.70;0.50;;;;;;;;;;5050756;28;20049;-37
2021/12/05 11:41:23;;;;;;;1.35;0.65;;;;;;;;;;5050892;28;20495;-37
2021/12/05 11:43:49;;;;;;;0.40;0.40;;;;;;;;;;5049788;28;20020;-37
2021/12/05 11:46:16;;;;;;;2.88;1.70;;;;;;;;;;5050937;28;20390;-37
2021/12/05 11:48:53;;;;;;;1.25;0.88;;;;;;;;;;5051195;28;20017;-37
2021/12/05 11:51:37;;;;;;;0.30;0.30;;;;;;;;;;5051156;28;20060;-37
2021/12/05 11:54:18;;;;;;;1.00;0.60;;;;;;;;;;5050903;28;20376;-37
2021/12/05 11:57:00;;;;;;;1.38;0.57;;;;;;;;;;5051111;28;20463;-37
2021/12/05 11:59:31;;;;;;;0.77;0.77;;;;;;;;;;5051133;28;20041;-36
2021/12/05 12:01:57;;;;;;;0.45;0.40;;;;;;;;;;5050622;28;20029;-37
2021/12/05 12:04:37;;;;;;;0.40;0.40;;;;;;;;;;5050803;28;20034;-37
2021/12/05 12:07:10;;;;;;;1.13;0.43;;;;;;;;;;5053151;28;20559;-37
2021/12/05 12:09:36;;;;;;;0.75;0.50;;;;;;;;;;5054627;28;20024;-37
2021/12/05 12:12:02;;;;;;;0.43;0.32;;;;;;;;;;5054385;28;20384;-37
2021/12/05 12:14:28;;;;;;;0.77;0.50;;;;;;;;;;5054513;28;20056;-37
2021/12/05 12:16:54;;;;;;;0.65;0.35;;;;;;;;;;5054653;28;20463;-37
2021/12/05 12:19:22;;;;;;;0.75;0.57;;;;;;;;;;5054577;28;20098;-37
2021/12/05 12:21:51;;;;;;;2.10;0.95;;;;;;;;;;5054244;28;20120;-37
2021/12/05 12:24:17;;;;;;;1.02;0.50;;;;;;;;;;5052897;28;20151;-37
2021/12/05 12:26:43;;;;;;;0.65;0.52;;;;;;;;;;5054501;28;20021;-37
2021/12/05 12:29:11;;;;;;;0.52;0.40;;;;;;;;;;5054427;28;20056;-37
2021/12/05 12:31:39;;;;;;;0.63;0.50;;;;;;;;;;5054375;28;20028;-37
2021/12/05 12:34:08;;;;;;;1.77;0.77;;;;;;;;;;5053959;28;20025;-37
2021/12/05 12:36:36;;;;;;;0.50;0.43;;;;;;;;;;5054045;28;20472;-37
2021/12/05 12:39:04;;;;;;;0.40;0.40;;;;;;;;;;5053802;28;20045;-37
2021/12/05 12:41:30;;;;;;;1.13;0.77;;;;;;;;;;5054130;28;20044;-37
2021/12/05 12:43:59;;;;;;;2.65;1.23;;;;;;;;;;5054192;28;20390;-37
2021/12/05 12:46:29;;;;;;;3.05;0.93;;;;;;;;;;5053828;28;20021;-37
2021/12/05 12:48:59;;;;;;;1.58;0.80;;;;;;;;;;5053953;28;20031;-37
2021/12/05 12:51:31;;;;;;;1.02;0.90;;;;;;;;;;5053705;28;20510;-37
2021/12/05 12:53:57;;;;;;;1.00;0.85;;;;;;;;;;5053939;28;20029;-37
2021/12/05 12:56:23;;;;;;;2.28;0.68;;;;;;;;;;5053640;28;20485;-37
2021/12/05 12:58:51;;;;;;;2.13;0.85;;;;;;;;;;5053909;28;20395;-38
2021/12/05 13:12:34;;;;;;;2.33;0.90;;;;;;;;;;5053662;28;20025;-37
2021/12/05 13:15:00;;;;;;;0.57;0.57;;;;;;;;;;5053463;28;20033;-37
2021/12/05 13:17:55;;;;;;;1.65;0.57;;;;;;;;;;5052538;28;20100;-37
2021/12/05 13:20:22;;;;;;;2.10;0.73;;;;;;;;;;5033345;28;20064;-37
2021/12/05 13:23:09;;;;;;;1.00;0.75;;;;;;;;;;5053190;28;20028;-37
2021/12/05 13:25:55;;;;;;;0.82;0.52;;;;;;;;;;5053103;28;20044;-37
2021/12/05 13:28:28;;;;;;;1.95;1.13;;;;;;;;;;5053064;28;20029;-37
2021/12/05 13:30:54;;;;;;;2.67;1.40;;;;;;;;;;5053237;28;20025;-38
2021/12/05 13:33:21;;;;;;;3.47;1.20;;;;;;;;;;5053210;28;20036;-37
2021/12/05 13:35:48;;;;;;;4.80;0.93;;;;;;;;;;5052958;28;20452;-37
2021/12/05 13:38:33;;;;;;;1.27;0.75;;;;;;;;;;5052610;28;20483;-37
2021/12/05 13:41:09;;;;;;;1.00;1.00;;;;;;;;;;5051433;28;20515;-37
2021/12/05 13:43:35;;;;;;;1.30;0.70;;;;;;;;;;5052760;28;20032;-37
2021/12/05 13:46:03;;;;;;;1.73;0.93;;;;;;;;;;5052662;28;20028;-37
2021/12/05 13:48:33;;;;;;;1.40;0.68;;;;;;;;;;5052725;28;20033;-37
2021/12/05 13:51:00;;;;;;;2.28;0.90;;;;;;;;;;5052385;28;20131;-37
2021/12/05 13:53:30;;;;;;;0.50;0.43;;;;;;;;;;5052570;28;20480;-37
2021/12/05 13:56:01;;;;;;;1.08;0.60;;;;;;;;;;5052521;28;20032;-37
2021/12/05 13:58:40;;;;;;;1.17;0.57;;;;;;;;;;5052375;28;20476;-37
2021/12/05 14:01:11;;;;;;;1.60;0.93;;;;;;;;;;5052575;28;20436;-37
2021/12/05 14:03:38;;;;;;;0.85;0.52;;;;;;;;;;5052729;28;20640;-38
2021/12/05 14:06:22;;;;;;;0.73;0.45;;;;;;;;;;5052251;28;20021;-37
2021/12/05 14:08:47;;;;;;;1.33;0.85;;;;;;;;;;5052697;28;20025;-37
2021/12/05 14:11:13;;;;;;;3.50;1.20;;;;;;;;;;5052095;28;20385;-37
2021/12/05 14:13:38;;;;;;;1.25;1.05;;;;;;;;;;5052501;28;20155;-36
2021/12/05 14:16:04;;;;;;;3.17;1.48;;;;;;;;;;5052100;28;20029;-37
2021/12/05 14:18:30;;;;;;;3.17;0.93;;;;;;;;;;5052369;28;20037;-37
2021/12/05 14:20:55;;;;;;;3.10;1.50;;;;;;;;;;5052206;28;20036;-37
2021/12/05 14:23:21;;;;;;;3.00;1.17;;;;;;;;;;5052243;28;20029;-37
2021/12/05 14:25:47;;;;;;;1.48;0.65;;;;;;;;;;5051920;28;20039;-37
2021/12/05 14:28:13;;;;;;;1.40;0.68;;;;;;;;;;5051843;28;20043;-37
2021/12/05 14:30:40;;;;;;;2.97;0.75;;;;;;;;;;5052130;28;20389;-38
2021/12/05 14:33:05;;;;;;;0.65;0.52;;;;;;;;;;5051748;28;20434;-37
2021/12/05 14:35:33;;;;;;;1.63;1.05;;;;;;;;;;5050614;28;20025;-38
2021/12/05 14:38:01;;;;;;;1.73;0.82;;;;;;;;;;5051746;28;20067;-37
2021/12/05 14:40:31;;;;;;;2.20;1.33;;;;;;;;;;5051993;28;20044;-37
2021/12/05 14:42:59;;;;;;;3.13;0.95;;;;;;;;;;5051991;28;20040;-37
2021/12/05 14:45:28;;;;;;;5.65;3.15;;;;;;;;;;5051983;28;20021;-37
2021/12/05 14:47:54;;;;;;;3.72;1.13;;;;;;;;;;5051681;28;20036;-37
2021/12/05 14:50:25;;;;;;;2.33;1.45;;;;;;;;;;5051803;28;20025;-37
2021/12/05 14:52:52;;;;;;;3.90;2.05;;;;;;;;;;5051497;28;20037;-37
2021/12/05 14:55:18;;;;;;;1.55;1.35;;;;;;;;;;5051665;28;20021;-37
2021/12/05 14:57:53;;;;;;;2.28;1.05;;;;;;;;;;5051508;28;20055;-37
2021/12/05 15:00:23;;;;;;;2.70;1.20;;;;;;;;;;5051301;28;20063;-38
2021/12/05 15:02:49;;;;;;;2.90;0.88;;;;;;;;;;5051594;28;20024;-37
2021/12/05 15:05:17;;;;;;;3.55;1.88;;;;;;;;;;5051381;28;20040;-38
2021/12/05 15:07:43;;;;;;;1.85;1.55;;;;;;;;;;5051388;28;20032;-37
2021/12/05 15:10:10;;;;;;;1.00;1.00;;;;;;;;;;5051235;28;20115;-37
2021/12/05 15:12:35;;;;;;;1.00;0.70;;;;;;;;;;5051342;28;20017;-37
2021/12/05 15:15:03;;;;;;;1.23;0.50;;;;;;;;;;5051122;28;20024;-37
2021/12/05 15:17:30;;;;;;;1.70;1.10;;;;;;;;;;5051349;28;20055;-37
2021/12/05 15:19:57;;;;;;;2.60;0.75;;;;;;;;;;5051528;28;20570;-37
2021/12/05 15:22:23;;;;;;;0.98;0.68;;;;;;;;;;5051154;28;20047;-37
2021/12/05 15:24:52;;;;;;;0.40;0.40;;;;;;;;;;5051257;28;20115;-37
2021/12/05 15:27:19;;;;;;;0.40;0.40;;;;;;;;;;5051095;28;20511;-37
2021/12/05 15:29:46;;;;;;;7.68;0.55;;;;;;;;;;5051162;28;20033;-37
2021/12/05 15:32:19;;;;;;;1.10;1.00;;;;;;;;;;5051074;28;20100;-37
2021/12/05 15:34:48;;;;;;;0.55;0.55;;;;;;;;;;5051149;28;20197;-37
2021/12/05 15:37:13;;;;;;;0.75;0.28;;;;;;;;;;5050906;28;20063;-38
2021/12/05 15:39:42;;;;;;;0.65;0.52;;;;;;;;;;5050871;28;20084;-37
2021/12/05 15:42:19;;;;;;;0.22;0.22;;;;;;;;;;5052592;28;20051;-39
2021/12/05 15:44:46;;;;;;;0.30;0.30;;;;;;;;;;5055074;28;20632;-37
2021/12/05 15:47:14;;;;;;;0.93;0.47;;;;;;;;;;5055140;28;20021;-37
2021/12/05 15:49:42;;;;;;;0.85;0.40;;;;;;;;;;5054990;28;20024;-42
2021/12/05 15:52:08;;;;;;;1.27;0.77;;;;;;;;;;5054694;28;20017;-37
2021/12/05 15:54:34;;;;;;;0.32;0.30;;;;;;;;;;5055224;28;20055;-37
2021/12/05 15:57:15;;;;;;;0.65;0.30;;;;;;;;;;5055055;28;20031;-37
2021/12/05 15:59:45;;;;;;;0.52;0.52;;;;;;;;;;5054725;28;20064;-37
2021/12/05 16:02:11;;;;;;;0.30;0.30;;;;;;;;;;5054501;28;20041;-37
2021/12/05 16:04:39;;;;;;;0.20;0.20;;;;;;;;;;5054668;28;20108;-37
2021/12/05 16:07:08;;;;;;;0.45;0.45;;;;;;;;;;5054532;28;20040;-38
2021/12/05 16:09:34;;;;;;;0.40;0.40;;;;;;;;;;5054521;28;20024;-38
2021/12/05 16:12:06;;;;;;;1.45;0.75;;;;;;;;;;5054384;28;20037;-37
2021/12/05 16:14:36;;;;;;;1.02;0.47;;;;;;;;;;5054748;28;20035;-37
2021/12/05 16:17:12;;;;;;;0.80;0.60;;;;;;;;;;5054368;28;20056;-38
2021/12/05 16:19:38;;;;;;;0.30;0.30;;;;;;;;;;5054331;28;20128;-37
2021/12/05 16:22:03;;;;;;;0.38;0.38;;;;;;;;;;5054171;28;20120;-37
2021/12/05 16:24:29;;;;;;;0.63;0.52;;;;;;;;;;5054353;28;20032;-37
2021/12/05 16:27:03;;;;;;;3.65;0.55;;;;;;;;;;5054542;28;20017;-37
2021/12/05 16:29:29;;;;;;;0.40;0.40;;;;;;;;;;5054240;28;20121;-38
2021/12/05 16:31:57;;;;;;;1.60;0.68;;;;;;;;;;5054460;28;20133;-37
2021/12/05 16:34:30;;;;;;;0.15;0.15;;;;;;;;;;5054303;28;20040;-37
2021/12/05 16:36:56;;;;;;;0.20;0.20;;;;;;;;;;5054367;28;20111;-37
2021/12/05 16:39:29;;;;;;;0.30;0.30;;;;;;;;;;5053831;28;20409;-37
2021/12/05 16:41:55;;;;;;;0.20;0.20;;;;;;;;;;5053907;28;20037;-37
2021/12/05 16:44:22;;;;;;;0.30;0.30;;;;;;;;;;5053776;28;20464;-38
2021/12/05 16:46:49;;;;;;;0.65;0.30;;;;;;;;;;5053905;28;20480;-37
2021/12/05 16:49:16;;;;;;;0.30;0.30;;;;;;;;;;5053697;28;20640;-37
2021/12/05 16:51:49;;;;;;;0.30;0.30;;;;;;;;;;5053522;28;20021;-37
2021/12/05 16:54:17;;;;;;;0.22;0.22;;;;;;;;;;5052956;28;20036;-37
2021/12/05 16:56:48;;;;;;;0.10;0.10;;;;;;;;;;5053628;28;20472;-38
2021/12/05 16:59:16;;;;;;;0.20;0.20;;;;;;;;;;5053569;28;20029;-37
2021/12/05 17:01:41;;;;;;;0.20;0.20;;;;;;;;;;5053502;28;20120;-37
2021/12/05 17:04:08;;;;;;;0.20;0.20;;;;;;;;;;5053470;28;20051;-37
2021/12/05 17:06:44;;;;;;;0.10;0.10;;;;;;;;;;5053585;28;20025;-37
2021/12/05 17:09:11;;;;;;;0.30;0.30;;;;;;;;;;5053404;28;20036;-37
2021/12/05 17:11:38;;;;;;;0.20;0.20;;;;;;;;;;5053678;28;20025;-37
2021/12/05 17:14:04;;;;;;;0.32;0.30;;;;;;;;;;5053355;28;20029;-37
2021/12/05 17:16:31;;;;;;;0.70;0.30;;;;;;;;;;5053668;28;20025;-37
2021/12/05 17:18:58;;;;;;;0.10;0.10;;;;;;;;;;5053602;28;20025;-37
2021/12/05 17:21:28;;;;;;;0.20;0.20;;;;;;;;;;5053022;28;20033;-37
2021/12/05 17:23:59;;;;;;;0.20;0.20;;;;;;;;;;5053184;28;20032;-37
2021/12/05 17:26:36;;;;;;;0.30;0.30;;;;;;;;;;5053140;28;20033;-37
2021/12/05 17:29:05;;;;;;;0.32;0.32;;;;;;;;;;5053046;28;20032;-37
2021/12/05 17:31:33;;;;;;;0.32;0.32;;;;;;;;;;5051720;28;20029;-37
2021/12/05 17:34:01;;;;;;;0.38;0.38;;;;;;;;;;5053014;28;20150;-37
2021/12/05 17:36:27;;;;;;;0.30;0.30;;;;;;;;;;5053036;28;20118;-37
2021/12/05 17:38:57;;;;;;;0.20;0.20;;;;;;;;;;5052924;28;20076;-37
2021/12/05 17:41:25;;;;;;;0.30;0.30;;;;;;;;;;5052708;28;20045;-37
2021/12/05 17:43:50;;;;;;;0.20;0.20;;;;;;;;;;5052844;28;20075;-38
2021/12/05 17:46:16;;;;;;;0.30;0.30;;;;;;;;;;5052972;28;20471;-37
2021/12/05 17:48:42;;;;;;;0.20;0.20;;;;;;;;;;5052678;28;20076;-37
2021/12/05 17:51:08;;;;;;;0.75;0.32;;;;;;;;;;5052807;28;20029;-37
2021/12/05 17:53:37;;;;;;;0.20;0.20;;;;;;;;;;5052629;28;20052;-37
2021/12/05 17:56:12;;;;;;;0.20;0.20;;;;;;;;;;5052513;28;20079;-37
2021/12/05 17:59:04;;;;;;;0.20;0.20;;;;;;;;;;5052760;28;20060;-37
2021/12/05 18:04:10;;;;;;;0.57;0.25;;;;;;;;;;5052045;28;20159;-37
2021/12/05 18:06:35;;;;;;;0.25;0.25;;;;;;;;;;5052608;28;20108;-37
2021/12/05 18:09:02;;;;;;;0.20;0.20;;;;;;;;;;5052364;28;20060;-37
2021/12/05 18:11:28;;;;;;;0.30;0.20;;;;;;;;;;5052287;28;20036;-39
2021/12/05 18:13:57;;;;;;;0.20;0.20;;;;;;;;;;5052469;28;20025;-37
2021/12/05 18:16:24;;;;;;;0.30;0.30;;;;;;;;;;5052169;28;20028;-37
2021/12/05 18:18:51;;;;;;;0.10;0.10;;;;;;;;;;5052415;28;20384;-37
2021/12/05 18:21:18;;;;;;;0.30;0.30;;;;;;;;;;5050529;28;20384;-37
2021/12/05 18:23:44;;;;;;;0.43;0.28;;;;;;;;;;5052119;28;20021;-37
2021/12/05 18:26:11;;;;;;;0.30;0.30;;;;;;;;;;5051969;28;20095;-37
2021/12/05 18:28:38;;;;;;;0.22;0.22;;;;;;;;;;5052320;28;20055;-37
2021/12/05 18:31:05;;;;;;;0.20;0.20;;;;;;;;;;5052028;28;20124;-37
2021/12/05 18:33:31;;;;;;;0.20;0.20;;;;;;;;;;5051925;28;20071;-37
2021/12/05 18:35:56;;;;;;;0.20;0.20;;;;;;;;;;5051797;28;20029;-37
2021/12/05 18:38:25;;;;;;;0.40;0.40;;;;;;;;;;5051744;28;20049;-37
2021/12/05 18:40:55;;;;;;;0.20;0.20;;;;;;;;;;5051674;28;20049;-37
2021/12/05 18:43:24;;;;;;;0.30;0.30;;;;;;;;;;5051826;28;20051;-37
2021/12/05 18:45:50;;;;;;;0.20;0.20;;;;;;;;;;5051727;28;20495;-37
2021/12/05 18:48:16;;;;;;;0.10;0.10;;;;;;;;;;5051846;28;20051;-37
2021/12/05 18:50:42;;;;;;;1.42;0.40;;;;;;;;;;5051548;28;20452;-37
2021/12/05 18:53:08;;;;;;;0.57;0.28;;;;;;;;;;5051860;28;20108;-37
2021/12/05 18:55:34;;;;;;;0.28;0.28;;;;;;;;;;5051563;28;20096;-37
2021/12/05 18:58:07;;;;;;;0.82;0.40;;;;;;;;;;5051532;28;20082;-37
2021/12/05 19:00:40;;;;;;;0.25;0.25;;;;;;;;;;5051367;28;20029;-37
2021/12/05 19:06:04;;;;;;;0.38;0.35;;;;;;;;;;5051470;28;20043;-37
2021/12/05 19:13:58;;;;;;;0.20;0.20;;;;;;;;;;5051343;28;20107;-37
2021/12/05 19:16:23;;;;;;;0.20;0.20;;;;;;;;;;5050476;28;20154;-37
2021/12/05 19:18:49;;;;;;;0.30;0.30;;;;;;;;;;5051225;28;20083;-37
2021/12/05 19:21:14;;;;;;;0.20;0.20;;;;;;;;;;5051041;28;20037;-37
2021/12/05 19:23:40;;;;;;;0.20;0.20;;;;;;;;;;5051240;28;20033;-37
2021/12/05 19:26:06;;;;;;;0.70;0.32;;;;;;;;;;5051388;28;20024;-37
2021/12/05 19:28:31;;;;;;;0.10;0.10;;;;;;;;;;5051517;28;20029;-37
2021/12/05 19:30:57;;;;;;;0.30;0.30;;;;;;;;;;5051460;28;20521;-37
2021/12/05 19:33:26;;;;;;;0.13;0.13;;;;;;;;;;5051115;28;20084;-37
2021/12/05 19:35:52;;;;;;;0.20;0.20;;;;;;;;;;5051442;28;20033;-36
2021/12/05 19:38:23;;;;;;;0.50;0.30;;;;;;;;;;5050862;28;20491;-37
2021/12/05 19:40:49;;;;;;;0.20;0.20;;;;;;;;;;5051262;28;20388;-37
2021/12/05 19:43:14;;;;;;;0.20;0.20;;;;;;;;;;5051199;28;20095;-37
2021/12/05 19:45:40;;;;;;;0.30;0.20;;;;;;;;;;5051329;28;20029;-37
2021/12/05 19:48:06;;;;;;;0.20;0.20;;;;;;;;;;5050928;28;20013;-37
2021/12/05 19:50:34;;;;;;;0.28;0.28;;;;;;;;;;5051198;28;20060;-37
2021/12/05 19:53:00;;;;;;;0.20;0.20;;;;;;;;;;5050995;28;20455;-37
2021/12/05 19:55:26;;;;;;;0.35;0.30;;;;;;;;;;5051117;28;20053;-37
2021/12/05 19:57:52;;;;;;;0.20;0.20;;;;;;;;;;5050949;28;20029;-38
2021/12/05 20:00:18;;;;;;;0.20;0.20;;;;;;;;;;5051010;28;20032;-37
2021/12/05 20:02:44;;;;;;;0.28;0.28;;;;;;;;;;5050811;28;20072;-37
2021/12/05 20:05:11;;;;;;;0.30;0.30;;;;;;;;;;5051116;28;20060;-41
2021/12/05 20:07:37;;;;;;;0.20;0.20;;;;;;;;;;5050863;28;20100;-37
2021/12/05 20:10:04;;;;;;;0.30;0.30;;;;;;;;;;5050715;28;20493;-37
2021/12/05 20:12:30;;;;;;;0.63;0.43;;;;;;;;;;5050769;28;20487;-37
2021/12/05 20:14:55;;;;;;;0.28;0.28;;;;;;;;;;5050952;28;20029;-37
2021/12/05 20:17:21;;;;;;;0.20;0.20;;;;;;;;;;5050986;28;20116;-37
2021/12/05 20:19:47;;;;;;;0.20;0.20;;;;;;;;;;5051030;28;20048;-37
2021/12/05 20:22:12;;;;;;;1.27;0.50;;;;;;;;;;5050737;28;20480;-37
2021/12/05 20:24:37;;;;;;;0.20;0.20;;;;;;;;;;5050715;28;20047;-37
2021/12/05 20:27:03;;;;;;;0.38;0.38;;;;;;;;;;5051437;28;20029;-37
2021/12/05 20:29:29;;;;;;;0.30;0.30;;;;;;;;;;5054218;28;20065;-37
2021/12/05 20:31:55;;;;;;;0.20;0.20;;;;;;;;;;5054239;28;20029;-37
2021/12/05 20:34:23;;;;;;;1.00;0.43;;;;;;;;;;5054000;28;20033;-37